createdAt,value
2019-04-27T00:03:50.153Z,12.10
2019-04-27T00:08:58.979Z,12.00
2019-04-27T00:14:04.888Z,11.90
2019-04-27T00:19:27.405Z,11.90
2019-04-27T00:24:33.874Z,11.70
2019-04-27T00:29:44.186Z,11.70
2019-04-27T00:34:48.807Z,11.70
2019-04-27T00:39:58.611Z,11.60
2019-04-27T00:45:05.226Z,11.60
2019-04-27T00:50:10.445Z,11.50
2019-04-27T00:55:14.884Z,11.50
2019-04-27T01:00:23.576Z,11.50
2019-04-27T01:05:31.039Z,11.50
2019-04-27T01:10:36.154Z,11.50
2019-04-27T01:15:40.829Z,11.50
2019-04-27T01:20:46.981Z,11.50
2019-04-27T01:26:02.015Z,11.50
2019-04-27T01:31:09.253Z,11.50
2019-04-27T01:36:13.801Z,11.50
2019-04-27T01:41:19.241Z,11.50
2019-04-27T01:46:29.060Z,11.50
2019-04-27T01:51:34.084Z,11.50
2019-04-27T01:56:43.046Z,11.50
2019-04-27T02:01:58.781Z,11.50
2019-04-27T02:07:09.994Z,11.50
2019-04-27T02:12:14.434Z,11.50
2019-04-27T02:17:20.325Z,11.50
2019-04-27T02:22:26.374Z,11.40
2019-04-27T02:27:32.530Z,11.50
2019-04-27T02:33:02.080Z,11.50
2019-04-27T02:38:10.778Z,11.50
2019-04-27T02:43:21.094Z,11.40
2019-04-27T02:48:30.615Z,11.40
2019-04-27T02:53:55.343Z,11.30
2019-04-27T02:59:05.501Z,11.30
2019-04-27T03:04:20.382Z,11.20
2019-04-27T03:09:30.478Z,11.10
2019-04-27T03:14:55.460Z,11.10
2019-04-27T03:20:10.548Z,11.10
2019-04-27T03:25:22.282Z,11.00
2019-04-27T03:30:35.438Z,11.00
2019-04-27T03:35:42.373Z,11.00
2019-04-27T03:40:45.539Z,11.00
2019-04-27T03:46:10.456Z,10.90
2019-04-27T03:51:33.655Z,10.90
2019-04-27T03:56:41.913Z,10.80
2019-04-27T04:01:51.373Z,10.80
2019-04-27T04:07:09.599Z,10.80
2019-04-27T04:12:15.816Z,10.80
2019-04-27T04:17:22.552Z,10.80
2019-04-27T04:22:31.033Z,10.80
2019-04-27T04:27:42.691Z,10.70
2019-04-27T04:32:52.490Z,10.80
2019-04-27T04:38:04.552Z,10.70
2019-04-27T04:43:11.165Z,10.70
2019-04-27T04:48:26.464Z,10.70
2019-04-27T04:53:36.410Z,10.70
2019-04-27T04:58:44.715Z,10.70
2019-04-27T05:03:59.199Z,10.70
2019-04-27T05:09:01.907Z,10.60
2019-04-27T05:14:15.675Z,10.60
2019-04-27T05:19:28.941Z,10.60
2019-04-27T05:24:39.442Z,10.50
2019-04-27T05:29:48.844Z,10.50
2019-04-27T05:34:53.086Z,10.50
2019-04-27T05:39:58.871Z,10.50
2019-04-27T05:45:19.949Z,10.40
2019-04-27T05:50:22.138Z,10.40
2019-04-27T05:55:26.556Z,10.30
2019-04-27T06:00:31.031Z,10.40
2019-04-27T06:05:35.274Z,10.40
2019-04-27T06:10:39.634Z,10.40
2019-04-27T06:15:44.117Z,10.40
2019-04-27T06:20:54.972Z,10.40
2019-04-27T06:25:54.652Z,10.40
2019-04-27T06:30:59.453Z,10.30
2019-04-27T06:36:10.172Z,10.30
2019-04-27T06:41:20.674Z,10.30
2019-04-27T06:46:24.980Z,10.30
2019-04-27T06:51:30.991Z,10.20
2019-04-27T06:56:35.325Z,10.30
2019-04-27T07:01:39.666Z,10.20
2019-04-27T07:06:53.303Z,10.30
2019-04-27T07:11:50.463Z,10.30
2019-04-27T07:16:54.890Z,10.30
2019-04-27T07:22:02.121Z,10.40
2019-04-27T07:27:06.473Z,10.40
2019-04-27T07:32:10.758Z,10.40
2019-04-27T07:37:15.140Z,10.40
2019-04-27T07:42:21.893Z,10.30
2019-04-27T07:47:27.118Z,10.20
2019-04-27T07:52:31.432Z,10.10
2019-04-27T07:57:35.647Z,10.20
2019-04-27T08:02:42.861Z,10.20
2019-04-27T08:07:48.991Z,10.30
2019-04-27T08:12:53.255Z,10.40
2019-04-27T08:17:59.153Z,10.50
2019-04-27T08:23:11.002Z,10.60
2019-04-27T08:28:23.006Z,10.60
2019-04-27T08:33:28.906Z,10.80
2019-04-27T08:38:33.457Z,10.80
2019-04-27T08:43:39.732Z,10.90
2019-04-27T08:48:44.244Z,11.00
2019-04-27T08:53:50.413Z,11.20
2019-04-27T08:58:55.168Z,11.40
2019-04-27T09:04:01.160Z,11.60
2019-04-27T09:09:19.383Z,11.90
2019-04-27T09:14:34.427Z,12.10
2019-04-27T09:19:55.454Z,12.20
2019-04-27T09:25:04.293Z,12.20
2019-04-27T09:30:10.272Z,12.10
2019-04-27T09:35:18.526Z,12.00
2019-04-27T09:40:24.140Z,12.00
2019-04-27T09:45:32.001Z,12.10
2019-04-27T09:50:37.138Z,12.20
2019-04-27T09:55:42.132Z,12.20
2019-04-27T10:00:50.152Z,12.30
2019-04-27T10:05:57.137Z,12.40
2019-04-27T10:11:05.964Z,12.50
2019-04-27T10:16:10.498Z,12.40
2019-04-27T10:21:16.313Z,12.50
2019-04-27T10:26:20.743Z,12.50
2019-04-27T10:31:24.955Z,12.60
2019-04-27T10:36:41.047Z,12.80
2019-04-27T10:41:46.292Z,13.00
2019-04-27T10:46:50.823Z,13.20
2019-04-27T10:51:56.811Z,13.70
2019-04-27T10:57:01.216Z,14.20
2019-04-27T11:02:05.720Z,14.40
2019-04-27T11:07:11.886Z,14.50
2019-04-27T11:12:16.343Z,14.90
2019-04-27T11:17:20.993Z,14.70
2019-04-27T11:22:27.101Z,14.20
2019-04-27T11:27:31.526Z,13.80
2019-04-27T11:32:35.831Z,13.90
2019-04-27T11:37:40.017Z,14.40
2019-04-27T11:42:44.334Z,15.00
2019-04-27T11:47:48.554Z,14.90
2019-04-27T11:52:52.887Z,14.30
2019-04-27T11:57:57.458Z,13.50
2019-04-27T12:03:01.796Z,13.00
2019-04-27T12:08:06.422Z,12.60
2019-04-27T12:13:10.752Z,12.20
2019-04-27T12:18:15.983Z,12.00
2019-04-27T12:23:33.100Z,12.00
2019-04-27T12:28:41.034Z,11.80
2019-04-27T12:33:46.057Z,11.70
2019-04-27T12:38:56.534Z,11.60
2019-04-27T12:44:02.464Z,11.50
2019-04-27T12:49:09.678Z,12.20
2019-04-27T13:00:01.681Z,13.00
2019-04-27T13:05:08.928Z,13.90
2019-04-27T13:10:17.698Z,14.40
2019-04-27T13:15:22.235Z,14.70
2019-04-27T13:20:26.519Z,15.30
2019-04-27T13:25:30.725Z,15.10
2019-04-27T13:30:35.802Z,14.50
2019-04-27T13:35:40.277Z,14.50
2019-04-27T13:40:45.881Z,14.20
2019-04-27T13:45:54.556Z,13.80
2019-04-27T13:51:06.628Z,13.50
2019-04-27T13:56:17.413Z,13.40
2019-04-27T14:01:21.958Z,13.40
2019-04-27T14:06:26.220Z,13.60
2019-04-27T14:11:30.573Z,13.50
2019-04-27T14:16:34.838Z,13.70
2019-04-27T14:21:39.091Z,14.40
2019-04-27T14:26:43.351Z,14.80
2019-04-27T14:31:47.864Z,14.50
2019-04-27T14:36:53.840Z,14.40
2019-04-27T14:41:58.107Z,14.50
2019-04-27T14:47:02.279Z,14.30
2019-04-27T14:52:06.572Z,14.20
2019-04-27T14:57:10.782Z,14.20
2019-04-27T15:02:15.047Z,14.00
2019-04-27T15:07:19.246Z,13.70
2019-04-27T15:12:30.014Z,13.40
2019-04-27T15:17:29.709Z,13.10
2019-04-27T15:22:35.052Z,12.80
2019-04-27T15:27:42.435Z,12.40
2019-04-27T15:32:52.630Z,12.20
2019-04-27T15:38:04.991Z,12.20
2019-04-27T15:43:11.039Z,12.20
2019-04-27T15:48:15.311Z,12.30
2019-04-27T15:53:19.696Z,12.30
2019-04-27T15:58:24.920Z,12.30
2019-04-27T16:03:31.371Z,12.20
2019-04-27T16:08:38.246Z,12.00
2019-04-27T16:13:41.779Z,11.80
2019-04-27T16:18:46.115Z,11.40
2019-04-27T16:23:50.328Z,11.20
2019-04-27T16:28:54.548Z,11.40
2019-04-27T16:34:02.612Z,11.50
2019-04-27T16:39:08.354Z,11.60
2019-04-27T16:44:13.687Z,11.70
2019-04-27T16:49:18.756Z,11.80
2019-04-27T16:54:23.006Z,11.80
2019-04-27T16:59:42.312Z,11.80
2019-04-27T17:04:34.926Z,11.80
2019-04-27T17:09:42.151Z,11.70
2019-04-27T17:14:49.603Z,11.50
2019-04-27T17:19:55.531Z,11.30
2019-04-27T17:24:59.749Z,11.10
2019-04-27T17:30:06.160Z,11.00
2019-04-27T17:35:14.708Z,11.00
2019-04-27T17:40:16.416Z,11.00
2019-04-27T17:45:21.709Z,11.00
2019-04-27T17:50:26.276Z,11.00
2019-04-27T17:55:33.875Z,11.00
2019-04-27T18:00:42.913Z,10.90
2019-04-27T18:05:50.591Z,11.00
2019-04-27T18:10:53.668Z,10.90
2019-04-27T18:15:58.962Z,10.70
2019-04-27T18:21:03.494Z,10.50
2019-04-27T18:26:12.693Z,10.40
2019-04-27T18:31:17.903Z,10.30
2019-04-27T18:36:22.207Z,10.30
2019-04-27T18:41:26.525Z,10.20
2019-04-27T18:46:30.794Z,10.20
2019-04-27T18:51:38.316Z,10.20
2019-04-27T18:56:42.689Z,10.20
2019-04-27T19:01:48.929Z,10.10
2019-04-27T19:06:53.281Z,10.00
2019-04-27T19:11:59.245Z,9.90
2019-04-27T19:17:12.186Z,9.90
2019-04-27T19:22:22.717Z,9.70
2019-04-27T19:27:35.607Z,9.50
2019-04-27T19:32:41.650Z,9.50
2019-04-27T19:37:48.732Z,9.20
2019-04-27T19:42:59.676Z,8.90
2019-04-27T19:48:10.346Z,8.50
2019-04-27T19:53:16.146Z,8.40
2019-04-27T19:58:26.566Z,8.30
2019-04-27T20:03:50.645Z,8.20
2019-04-27T20:08:58.232Z,8.20
2019-04-27T20:14:10.980Z,8.30
2019-04-27T20:19:34.290Z,8.30
2019-04-27T20:24:46.112Z,8.30
2019-04-27T20:30:00.626Z,8.40
2019-04-27T20:35:16.685Z,8.50
2019-04-27T20:40:48.602Z,8.50
2019-04-27T20:46:07.995Z,8.60
2019-04-27T20:51:35.233Z,8.70
2019-04-27T20:56:28.439Z,8.80
2019-04-27T21:01:39.337Z,8.80
2019-04-27T21:06:58.325Z,8.90
2019-04-27T21:23:02.361Z,8.80
2019-04-27T21:28:16.609Z,8.80
2019-04-27T21:33:25.074Z,8.80
2019-04-27T21:38:31.672Z,8.80
2019-04-27T21:43:42.065Z,8.80
2019-04-27T21:48:55.008Z,8.90
2019-04-27T21:54:04.632Z,8.90
2019-04-27T21:59:14.408Z,9.00
2019-04-27T22:04:19.937Z,9.00
2019-04-27T22:15:11.121Z,9.00
2019-04-27T22:20:32.419Z,9.00
2019-04-27T22:25:44.730Z,9.00
2019-04-27T22:30:57.526Z,9.00
2019-04-27T22:36:04.867Z,9.10
2019-04-27T22:41:21.230Z,9.10
2019-04-27T22:46:32.459Z,9.10
2019-04-27T22:51:43.107Z,9.10
2019-04-27T22:56:51.027Z,9.10
2019-04-27T23:03:13.969Z,9.10
2019-04-27T23:08:31.112Z,9.20
2019-04-27T23:24:08.674Z,9.20
2019-04-27T23:29:17.336Z,9.20
2019-04-27T23:34:29.422Z,9.20
2019-04-27T23:39:34.609Z,9.20
2019-04-27T23:44:41.988Z,9.20
2019-04-27T23:49:46.935Z,9.20
2019-04-27T23:55:12.864Z,9.10
